createdAt,value
2023-06-17T00:00:41.245Z,0.00
2023-06-17T00:01:41.177Z,0.00
2023-06-17T00:02:41.316Z,0.00
2023-06-17T00:03:41.158Z,0.00
2023-06-17T00:04:41.165Z,0.00
2023-06-17T00:05:41.186Z,0.00
2023-06-17T00:06:41.138Z,0.00
2023-06-17T00:07:42.067Z,0.00
2023-06-17T00:08:41.143Z,0.00
2023-06-17T00:09:41.101Z,0.00
2023-06-17T00:10:41.135Z,0.00
2023-06-17T00:11:41.143Z,0.00
2023-06-17T00:12:41.095Z,0.00
2023-06-17T00:13:41.079Z,0.00
2023-06-17T00:14:41.114Z,0.00
2023-06-17T00:15:41.067Z,0.00
2023-06-17T00:16:41.099Z,0.00
2023-06-17T00:17:41.072Z,0.00
2023-06-17T00:18:41.086Z,0.00
2023-06-17T00:19:41.049Z,0.00
2023-06-17T00:20:41.094Z,0.00
2023-06-17T00:21:41.061Z,0.00
2023-06-17T00:22:41.015Z,0.00
2023-06-17T00:23:41.030Z,0.00
2023-06-17T00:24:41.029Z,0.00
2023-06-17T00:25:41.038Z,0.00
2023-06-17T00:26:40.988Z,0.00
2023-06-17T00:27:41.010Z,0.00
2023-06-17T00:28:40.985Z,0.00
2023-06-17T00:29:41.576Z,0.00
2023-06-17T00:30:40.952Z,0.00
2023-06-17T00:31:40.973Z,0.00
2023-06-17T00:32:42.262Z,0.00
2023-06-17T00:33:40.954Z,0.00
2023-06-17T00:34:40.918Z,0.00
2023-06-17T00:35:40.916Z,0.00
2023-06-17T00:36:40.909Z,0.00
2023-06-17T00:37:40.923Z,0.00
2023-06-17T00:38:40.914Z,0.00
2023-06-17T00:39:40.890Z,0.00
2023-06-17T00:40:40.902Z,0.00
2023-06-17T00:41:40.894Z,0.00
2023-06-17T00:42:40.854Z,0.00
2023-06-17T00:43:40.836Z,0.00
2023-06-17T00:44:40.848Z,0.00
2023-06-17T00:45:40.894Z,0.00
2023-06-17T00:46:40.934Z,0.00
2023-06-17T00:47:40.875Z,0.00
2023-06-17T00:48:40.822Z,0.00
2023-06-17T00:49:40.822Z,0.00
2023-06-17T00:50:40.869Z,0.00
2023-06-17T00:51:40.801Z,0.00
2023-06-17T00:52:42.622Z,0.00
2023-06-17T00:53:41.786Z,0.00
2023-06-17T00:54:40.801Z,0.00
2023-06-17T00:55:40.773Z,0.00
2023-06-17T00:56:40.740Z,0.00
2023-06-17T00:57:40.740Z,0.00
2023-06-17T00:58:40.756Z,0.00
2023-06-17T00:59:41.758Z,0.00
2023-06-17T01:00:41.558Z,0.00
2023-06-17T01:01:40.714Z,0.00
2023-06-17T01:02:40.776Z,0.00
2023-06-17T01:03:40.777Z,0.00
2023-06-17T01:04:40.727Z,0.00
2023-06-17T01:05:41.457Z,0.00
2023-06-17T01:06:41.456Z,0.00
2023-06-17T01:07:40.678Z,0.00
2023-06-17T01:08:40.686Z,0.00
2023-06-17T01:09:40.646Z,0.00
2023-06-17T01:10:40.658Z,0.00
2023-06-17T01:11:40.656Z,0.00
2023-06-17T01:12:40.635Z,0.00
2023-06-17T01:13:40.624Z,0.00
2023-06-17T01:14:41.646Z,0.00
2023-06-17T01:15:40.640Z,0.00
2023-06-17T01:16:40.637Z,0.00
2023-06-17T01:17:40.642Z,0.00
2023-06-17T01:18:40.635Z,0.00
2023-06-17T01:19:40.575Z,0.00
2023-06-17T01:20:40.631Z,0.00
2023-06-17T01:21:40.609Z,0.00
2023-06-17T01:22:40.593Z,0.00
2023-06-17T01:23:40.543Z,0.00
2023-06-17T01:24:40.572Z,0.00
2023-06-17T01:25:40.557Z,0.00
2023-06-17T01:26:40.579Z,0.00
2023-06-17T01:27:41.046Z,0.00
2023-06-17T01:28:40.530Z,0.00
2023-06-17T01:29:40.550Z,0.00
2023-06-17T01:30:40.513Z,0.00
2023-06-17T01:31:40.502Z,0.00
2023-06-17T01:32:40.519Z,0.00
2023-06-17T01:33:40.487Z,0.00
2023-06-17T01:34:40.484Z,0.00
2023-06-17T01:35:41.497Z,0.00
2023-06-17T01:36:40.548Z,0.00
2023-06-17T01:37:40.455Z,0.00
2023-06-17T01:38:40.464Z,0.00
2023-06-17T01:39:40.516Z,0.00
2023-06-17T01:40:40.479Z,0.00
2023-06-17T01:41:40.405Z,0.00
2023-06-17T01:42:40.422Z,0.00
2023-06-17T01:43:40.442Z,0.00
2023-06-17T01:44:40.437Z,0.00
2023-06-17T01:45:40.427Z,0.00
2023-06-17T01:46:40.397Z,0.00
2023-06-17T01:47:40.437Z,0.00
2023-06-17T01:48:40.385Z,0.00
2023-06-17T01:49:40.367Z,0.00
2023-06-17T01:50:40.355Z,0.00
2023-06-17T01:51:40.378Z,0.00
2023-06-17T01:52:40.350Z,0.00
2023-06-17T01:53:40.352Z,0.00
2023-06-17T01:54:40.340Z,0.00
2023-06-17T01:55:40.302Z,0.00
2023-06-17T01:56:40.346Z,0.00
2023-06-17T01:57:40.288Z,0.00
2023-06-17T01:58:40.284Z,0.00
2023-06-17T01:59:40.285Z,0.00
2023-06-17T02:00:40.291Z,0.00
2023-06-17T02:01:40.288Z,0.00
2023-06-17T02:02:40.339Z,0.00
2023-06-17T02:03:40.348Z,0.00
2023-06-17T02:04:40.288Z,0.00
2023-06-17T02:05:40.229Z,0.00
2023-06-17T02:06:40.233Z,0.00
2023-06-17T02:07:40.259Z,0.00
2023-06-17T02:08:40.244Z,0.00
2023-06-17T02:09:41.879Z,0.00
2023-06-17T02:10:40.205Z,0.00
2023-06-17T02:11:41.066Z,0.00
2023-06-17T02:12:40.195Z,0.00
2023-06-17T02:13:40.186Z,0.00
2023-06-17T02:14:40.173Z,0.00
2023-06-17T02:15:40.221Z,0.00
2023-06-17T02:16:40.195Z,0.00
2023-06-17T02:17:40.208Z,0.00
2023-06-17T02:18:40.165Z,0.00
2023-06-17T02:19:40.159Z,0.00
2023-06-17T02:20:40.137Z,0.00
2023-06-17T02:21:40.139Z,0.00
2023-06-17T02:22:40.099Z,0.00
2023-06-17T02:23:40.512Z,0.00
2023-06-17T02:24:40.176Z,0.00
2023-06-17T02:25:41.220Z,0.00
2023-06-17T02:26:40.070Z,0.00
2023-06-17T02:27:40.072Z,0.00
2023-06-17T02:28:40.065Z,0.00
2023-06-17T02:29:41.575Z,0.00
2023-06-17T02:30:40.049Z,0.00
2023-06-17T02:31:40.119Z,0.00
2023-06-17T02:32:40.086Z,0.00
2023-06-17T02:33:40.006Z,0.00
2023-06-17T02:34:40.035Z,0.00
2023-06-17T02:35:40.018Z,0.00
2023-06-17T02:36:39.993Z,0.00
2023-06-17T02:37:40.559Z,0.00
2023-06-17T02:38:39.962Z,0.00
2023-06-17T02:39:40.546Z,0.00
2023-06-17T02:40:40.018Z,0.00
2023-06-17T02:41:39.950Z,0.00
2023-06-17T02:42:39.958Z,0.00
2023-06-17T02:43:39.951Z,0.00
2023-06-17T02:44:39.926Z,0.00
2023-06-17T02:45:39.945Z,0.00
2023-06-17T02:46:39.991Z,0.00
2023-06-17T02:47:40.532Z,0.00
2023-06-17T02:48:39.887Z,0.00
2023-06-17T02:49:39.890Z,0.00
2023-06-17T02:50:39.888Z,0.00
2023-06-17T02:51:39.913Z,0.00
2023-06-17T02:52:39.876Z,5.62
2023-06-17T02:53:39.848Z,5.62
2023-06-17T02:54:39.853Z,5.62
2023-06-17T02:55:39.860Z,5.62
2023-06-17T02:56:39.832Z,5.62
2023-06-17T02:57:39.861Z,5.62
2023-06-17T02:58:39.815Z,5.62
2023-06-17T02:59:39.968Z,5.62
2023-06-17T03:00:39.859Z,11.25
2023-06-17T03:01:39.776Z,11.25
2023-06-17T03:02:39.892Z,11.25
2023-06-17T03:03:39.756Z,11.25
2023-06-17T03:04:39.778Z,11.25
2023-06-17T03:05:39.847Z,16.88
2023-06-17T03:06:39.746Z,16.88
2023-06-17T03:07:39.740Z,16.88
2023-06-17T03:08:39.751Z,16.88
2023-06-17T03:09:40.400Z,16.88
2023-06-17T03:10:39.732Z,16.88
2023-06-17T03:11:39.706Z,22.50
2023-06-17T03:12:39.713Z,22.50
2023-06-17T03:13:39.701Z,22.50
2023-06-17T03:14:39.747Z,28.12
2023-06-17T03:15:39.687Z,28.12
2023-06-17T03:16:40.583Z,28.12
2023-06-17T03:17:39.716Z,33.75
2023-06-17T03:18:39.677Z,33.75
2023-06-17T03:19:39.677Z,39.38
2023-06-17T03:20:39.674Z,39.38
2023-06-17T03:21:39.678Z,45.00
2023-06-17T03:22:39.658Z,45.00
2023-06-17T03:23:39.647Z,56.25
2023-06-17T03:24:39.767Z,61.88
2023-06-17T03:25:39.625Z,67.50
2023-06-17T03:26:39.648Z,67.50
2023-06-17T03:27:39.616Z,67.50
2023-06-17T03:28:39.620Z,73.12
2023-06-17T03:29:39.607Z,78.75
2023-06-17T03:30:39.617Z,84.38
2023-06-17T03:31:39.612Z,78.75
2023-06-17T03:32:39.577Z,84.38
2023-06-17T03:33:39.587Z,78.75
2023-06-17T03:34:40.084Z,78.75
2023-06-17T03:35:39.582Z,95.62
2023-06-17T03:36:39.562Z,106.88
2023-06-17T03:37:39.541Z,123.75
2023-06-17T03:38:39.510Z,140.62
2023-06-17T03:39:39.513Z,146.25
2023-06-17T03:40:39.508Z,146.25
2023-06-17T03:41:39.545Z,135.00
2023-06-17T03:42:39.503Z,123.75
2023-06-17T03:43:39.481Z,106.88
2023-06-17T03:44:39.458Z,101.25
2023-06-17T03:45:39.461Z,106.88
2023-06-17T03:46:39.481Z,112.50
2023-06-17T03:47:39.480Z,118.12
2023-06-17T04:03:46.559Z,585.00
2023-06-17T04:04:46.353Z,607.50
2023-06-17T04:05:46.365Z,720.00
2023-06-17T04:06:47.528Z,753.75
2023-06-17T04:07:47.498Z,776.25
2023-06-17T04:08:47.495Z,815.62
2023-06-17T04:10:01.751Z,821.25
2023-06-17T04:10:48.454Z,742.50
2023-06-17T04:11:47.480Z,736.88
2023-06-17T04:12:47.461Z,776.25
2023-06-17T04:13:47.433Z,821.25
2023-06-17T04:14:47.447Z,821.25
2023-06-17T04:15:47.562Z,798.75
2023-06-17T04:16:51.604Z,804.38
2023-06-17T04:17:47.514Z,832.50
2023-06-17T04:18:47.413Z,832.50
2023-06-17T04:19:47.412Z,804.38
2023-06-17T04:20:47.383Z,787.50
2023-06-17T04:21:47.432Z,804.38
2023-06-17T04:22:47.408Z,815.62
2023-06-17T04:23:47.359Z,815.62
2023-06-17T04:24:47.375Z,877.50
2023-06-17T04:25:47.341Z,961.88
2023-06-17T04:26:47.336Z,956.25
2023-06-17T04:27:47.333Z,883.12
2023-06-17T04:28:47.347Z,877.50
2023-06-17T04:29:47.334Z,911.25
2023-06-17T04:30:47.329Z,928.12
2023-06-17T04:31:47.389Z,950.62
2023-06-17T04:32:48.652Z,990.00
2023-06-17T04:33:47.308Z,1018.12
2023-06-17T04:34:47.310Z,1035.00
2023-06-17T04:35:47.308Z,1057.50
2023-06-17T04:36:47.295Z,1091.25
2023-06-17T04:37:47.285Z,1119.38
2023-06-17T04:38:47.261Z,1170.00
2023-06-17T04:39:47.306Z,1181.25
2023-06-17T04:40:47.290Z,1170.00
2023-06-17T04:41:47.362Z,1175.62
2023-06-17T04:42:47.261Z,1192.50
2023-06-17T04:43:48.071Z,1231.88
2023-06-17T04:44:47.214Z,1265.62
2023-06-17T04:45:47.191Z,1338.75
2023-06-17T04:46:47.270Z,1423.12
2023-06-17T04:47:47.197Z,1445.62
2023-06-17T04:48:47.183Z,1434.38
2023-06-17T04:49:48.081Z,1428.75
2023-06-17T04:50:47.188Z,1456.88
2023-06-17T04:51:47.205Z,1513.12
2023-06-17T04:52:47.184Z,1575.00
2023-06-17T04:53:47.176Z,1625.62
2023-06-17T04:54:47.130Z,1665.00
2023-06-17T04:55:47.117Z,1704.38
2023-06-17T04:56:47.119Z,1805.62
2023-06-17T04:57:47.118Z,1811.25
2023-06-17T04:58:47.131Z,1822.50
2023-06-17T04:59:47.125Z,1766.25
2023-06-17T05:00:47.160Z,1636.88
2023-06-17T05:01:47.105Z,1541.25
2023-06-17T05:02:47.126Z,1501.88
2023-06-17T05:03:47.150Z,1490.62
2023-06-17T05:04:47.064Z,1513.12
2023-06-17T05:05:47.054Z,1524.38
2023-06-17T05:06:47.050Z,1524.38
2023-06-17T05:07:47.021Z,1490.62
2023-06-17T05:08:47.048Z,1468.12
2023-06-17T05:09:46.999Z,1451.25
2023-06-17T05:10:47.032Z,1434.38
2023-06-17T05:11:47.018Z,1434.38
2023-06-17T05:12:47.040Z,1434.38
2023-06-17T05:13:47.015Z,1434.38
2023-06-17T05:14:46.997Z,1434.38
2023-06-17T05:15:46.996Z,1440.00
2023-06-17T05:16:47.013Z,1462.50
2023-06-17T05:17:47.022Z,1507.50
2023-06-17T05:18:46.968Z,1631.25
2023-06-17T05:19:46.968Z,1963.12
2023-06-17T05:20:46.959Z,2413.12
2023-06-17T05:21:46.936Z,2818.12
2023-06-17T05:22:47.144Z,3088.12
2023-06-17T05:23:46.986Z,3234.38
2023-06-17T05:24:46.952Z,3285.00
2023-06-17T05:25:46.891Z,3318.75
2023-06-17T05:26:46.917Z,3369.38
2023-06-17T05:27:46.874Z,3431.25
2023-06-17T05:28:46.892Z,3420.00
2023-06-17T05:29:46.847Z,3408.75
2023-06-17T05:30:46.893Z,3510.00
2023-06-17T05:31:46.833Z,3521.25
2023-06-17T05:32:46.917Z,3504.38
2023-06-17T05:33:46.847Z,3566.25
2023-06-17T05:34:46.826Z,3628.12
2023-06-17T05:35:46.816Z,3555.00
2023-06-17T05:36:46.830Z,3571.88
2023-06-17T05:37:46.833Z,3600.00
2023-06-17T05:38:46.822Z,3622.50
2023-06-17T05:39:46.787Z,3661.88
2023-06-17T05:40:46.792Z,3667.50
2023-06-17T05:41:46.783Z,3684.38
2023-06-17T05:42:46.791Z,3701.25
2023-06-17T05:43:46.753Z,3678.75
2023-06-17T05:44:47.428Z,3712.50
2023-06-17T05:45:46.753Z,3740.62
2023-06-17T05:46:46.794Z,3751.88
2023-06-17T05:47:46.763Z,3695.62
2023-06-17T05:48:46.746Z,3751.88
2023-06-17T05:49:46.725Z,3757.50
2023-06-17T05:50:46.709Z,3740.62
2023-06-17T05:51:46.736Z,3684.38
2023-06-17T05:52:46.707Z,3588.75
2023-06-17T05:53:47.140Z,3667.50
2023-06-17T05:54:47.676Z,3825.00
2023-06-17T05:55:46.668Z,3819.38
2023-06-17T05:56:46.673Z,3735.00
2023-06-17T05:57:46.674Z,3808.12
2023-06-17T05:58:46.693Z,3886.88
2023-06-17T05:59:46.653Z,3712.50
2023-06-17T06:00:46.662Z,3442.50
2023-06-17T06:01:46.696Z,3616.88
2023-06-17T06:02:46.731Z,3976.88
2023-06-17T06:03:46.677Z,4005.00
2023-06-17T06:04:46.649Z,4027.50
2023-06-17T06:05:46.625Z,4050.00
2023-06-17T06:06:46.623Z,4066.88
2023-06-17T06:07:46.604Z,4055.62
2023-06-17T06:08:46.593Z,4095.00
2023-06-17T06:09:46.628Z,4083.75
2023-06-17T06:10:46.669Z,4072.50
2023-06-17T06:11:46.592Z,4016.25
2023-06-17T06:12:46.577Z,4066.88
2023-06-17T06:13:47.484Z,4111.88
2023-06-17T06:14:47.292Z,4083.75
2023-06-17T06:15:47.556Z,3943.12
2023-06-17T06:16:46.688Z,3948.75
2023-06-17T06:17:47.154Z,3965.62
2023-06-17T06:18:46.534Z,3926.25
2023-06-17T06:19:46.541Z,3943.12
2023-06-17T06:20:47.205Z,4016.25
2023-06-17T06:21:46.491Z,4106.25
2023-06-17T06:22:47.477Z,4100.62
2023-06-17T06:23:46.460Z,4128.75
2023-06-17T06:24:46.478Z,4190.62
2023-06-17T06:25:46.467Z,4123.12
2023-06-17T06:26:47.501Z,4027.50
2023-06-17T06:27:46.441Z,4111.88
2023-06-17T06:28:46.442Z,4218.75
2023-06-17T06:29:46.455Z,4218.75
2023-06-17T06:30:46.408Z,4230.00
2023-06-17T06:31:46.475Z,4201.88
2023-06-17T06:32:46.452Z,4213.12
2023-06-17T06:33:46.415Z,4246.88
2023-06-17T06:34:46.422Z,4190.62
2023-06-17T06:35:46.383Z,4117.50
2023-06-17T06:36:46.365Z,4185.00
2023-06-17T06:37:46.412Z,4196.25
2023-06-17T06:38:46.379Z,4106.25
2023-06-17T06:39:46.387Z,4128.75
2023-06-17T06:40:46.358Z,4151.25
2023-06-17T06:41:46.351Z,4123.12
2023-06-17T06:42:46.336Z,4078.12
2023-06-17T06:43:46.370Z,4100.62
2023-06-17T06:44:46.348Z,4123.12
2023-06-17T06:45:46.373Z,4100.62
2023-06-17T06:46:46.290Z,4095.00
2023-06-17T06:47:46.336Z,4050.00
2023-06-17T06:48:46.301Z,4027.50
2023-06-17T06:49:46.302Z,4050.00
2023-06-17T06:50:46.283Z,4066.88
2023-06-17T06:51:46.289Z,3971.25
2023-06-17T06:52:46.258Z,4050.00
2023-06-17T06:53:46.300Z,4078.12
2023-06-17T06:54:46.258Z,4078.12
2023-06-17T06:55:46.223Z,4083.75
2023-06-17T06:56:46.961Z,4111.88
2023-06-17T06:57:46.958Z,4072.50
2023-06-17T06:58:46.248Z,4083.75
2023-06-17T06:59:46.233Z,4134.38
2023-06-17T07:00:46.217Z,4140.00
2023-06-17T07:01:46.207Z,4066.88
2023-06-17T07:02:46.218Z,4066.88
2023-06-17T07:03:46.179Z,4117.50
2023-06-17T07:04:46.219Z,4123.12
2023-06-17T07:05:46.191Z,4078.12
2023-06-17T07:06:46.184Z,4100.62
2023-06-17T07:07:46.168Z,4016.25
2023-06-17T07:08:46.147Z,4021.88
2023-06-17T07:09:46.153Z,4078.12
2023-06-17T07:10:46.149Z,4078.12
2023-06-17T07:11:46.121Z,4106.25
2023-06-17T07:12:46.101Z,4106.25
2023-06-17T07:13:46.128Z,4055.62
2023-06-17T07:14:46.123Z,4055.62
2023-06-17T07:15:46.137Z,4044.38
2023-06-17T07:16:46.127Z,4016.25
2023-06-17T07:17:46.105Z,4033.12
2023-06-17T07:18:46.111Z,4038.75
2023-06-17T07:19:46.067Z,3982.50
2023-06-17T07:20:46.080Z,3982.50
2023-06-17T07:21:46.073Z,4044.38
2023-06-17T07:22:46.091Z,4106.25
2023-06-17T07:23:46.029Z,4027.50
2023-06-17T07:24:46.051Z,3746.25
2023-06-17T07:25:46.047Z,3712.50
2023-06-17T07:26:46.030Z,3993.75
2023-06-17T07:27:46.007Z,4151.25
2023-06-17T07:28:46.008Z,4066.88
2023-06-17T07:29:47.005Z,3853.12
2023-06-17T07:30:46.046Z,3841.88
2023-06-17T07:31:46.120Z,3864.38
2023-06-17T07:32:45.993Z,3808.12
2023-06-17T07:33:45.963Z,3920.62
2023-06-17T07:34:45.964Z,3881.25
2023-06-17T07:35:45.992Z,3920.62
2023-06-17T07:36:45.980Z,3948.75
2023-06-17T07:37:45.965Z,3988.12
2023-06-17T07:38:45.942Z,3915.00
2023-06-17T07:39:45.922Z,3870.00
2023-06-17T07:40:45.932Z,3836.25
2023-06-17T07:41:45.929Z,3836.25
2023-06-17T07:42:45.958Z,3780.00
2023-06-17T07:43:45.937Z,3881.25
2023-06-17T07:44:45.948Z,3886.88
2023-06-17T07:45:45.888Z,3735.00
2023-06-17T07:46:45.945Z,3695.62
2023-06-17T07:47:46.021Z,3757.50
2023-06-17T07:48:45.872Z,3780.00
2023-06-17T07:49:45.857Z,3785.62
2023-06-17T07:50:45.870Z,3780.00
2023-06-17T07:51:45.871Z,3706.88
2023-06-17T07:52:45.850Z,3701.25
2023-06-17T07:53:45.865Z,3718.12
2023-06-17T07:54:45.834Z,3639.38
2023-06-17T07:55:45.823Z,3695.62
2023-06-17T07:56:45.836Z,3645.00
2023-06-17T07:57:46.642Z,3571.88
2023-06-17T07:58:45.817Z,3611.25
2023-06-17T07:59:46.701Z,3538.12
2023-06-17T08:00:45.808Z,3481.88
2023-06-17T08:01:45.843Z,3487.50
2023-06-17T08:02:45.870Z,3408.75
2023-06-17T08:03:45.953Z,3330.00
2023-06-17T08:04:45.800Z,3279.38
2023-06-17T08:05:45.783Z,3206.25
2023-06-17T08:06:45.777Z,2227.50
2023-06-17T08:07:45.792Z,1305.00
2023-06-17T08:08:45.752Z,1170.00
2023-06-17T08:09:45.711Z,1141.88
2023-06-17T08:10:45.756Z,1130.62
2023-06-17T08:11:45.827Z,1119.38
2023-06-17T08:12:45.741Z,1125.00
2023-06-17T08:13:45.736Z,1119.38
2023-06-17T08:14:46.652Z,1125.00
2023-06-17T08:15:45.708Z,1130.62
2023-06-17T08:16:45.702Z,1164.38
2023-06-17T08:17:45.738Z,1203.75
2023-06-17T08:18:45.661Z,1220.62
2023-06-17T08:19:45.652Z,1209.38
2023-06-17T08:20:45.750Z,1175.62
2023-06-17T08:21:45.655Z,1164.38
2023-06-17T08:22:45.656Z,1153.12
2023-06-17T08:23:46.175Z,1147.50
2023-06-17T08:24:46.653Z,1153.12
2023-06-17T08:25:45.608Z,1164.38
2023-06-17T08:26:45.671Z,1153.12
2023-06-17T08:27:45.620Z,1147.50
2023-06-17T08:28:45.608Z,1147.50
2023-06-17T08:29:46.622Z,1170.00
2023-06-17T08:30:45.582Z,1243.12
2023-06-17T08:31:45.605Z,1260.00
2023-06-17T08:32:45.616Z,1203.75
2023-06-17T08:33:45.601Z,1226.25
2023-06-17T08:34:45.597Z,1220.62
2023-06-17T08:35:46.193Z,1175.62
2023-06-17T08:36:45.531Z,1158.75
2023-06-17T08:37:45.587Z,1130.62
2023-06-17T08:38:45.544Z,1125.00
2023-06-17T08:39:45.631Z,1130.62
2023-06-17T08:40:45.513Z,1119.38
2023-06-17T08:41:45.513Z,1130.62
2023-06-17T08:42:45.503Z,1136.25
2023-06-17T08:43:45.528Z,1141.88
2023-06-17T08:44:45.512Z,1130.62
2023-06-17T08:45:46.193Z,1108.12
2023-06-17T08:46:45.515Z,1080.00
2023-06-17T08:47:45.563Z,1085.62
2023-06-17T08:48:45.461Z,1080.00
2023-06-17T08:49:45.488Z,1080.00
2023-06-17T08:50:45.486Z,1074.38
2023-06-17T08:51:45.454Z,1068.75
2023-06-17T08:52:45.461Z,1074.38
2023-06-17T08:53:45.421Z,1074.38
2023-06-17T08:54:45.441Z,1074.38
2023-06-17T08:55:45.419Z,1080.00
2023-06-17T08:56:45.420Z,1085.62
2023-06-17T08:57:45.419Z,1091.25
2023-06-17T08:58:45.386Z,1108.12
2023-06-17T08:59:45.418Z,1102.50
2023-06-17T09:00:45.407Z,1102.50
2023-06-17T09:01:45.420Z,1096.88
2023-06-17T09:02:45.411Z,1102.50
2023-06-17T09:03:45.360Z,1102.50
2023-06-17T09:04:45.370Z,1091.25
2023-06-17T09:05:45.341Z,1091.25
2023-06-17T09:06:45.344Z,1096.88
2023-06-17T09:07:45.367Z,1102.50
2023-06-17T09:08:45.396Z,1096.88
2023-06-17T09:09:45.311Z,1074.38
2023-06-17T09:10:45.321Z,1057.50
2023-06-17T09:11:45.312Z,1040.62
2023-06-17T09:12:45.315Z,1029.38
2023-06-17T09:13:46.278Z,1023.75
2023-06-17T09:14:45.301Z,1012.50
2023-06-17T09:15:45.294Z,1001.25
2023-06-17T09:16:46.858Z,995.62
2023-06-17T09:17:45.319Z,984.38
2023-06-17T09:18:46.120Z,978.75
2023-06-17T09:19:45.250Z,978.75
2023-06-17T09:20:45.210Z,973.12
2023-06-17T09:21:46.293Z,967.50
2023-06-17T09:22:46.123Z,967.50
2023-06-17T09:23:45.206Z,956.25
2023-06-17T09:24:45.207Z,945.00
2023-06-17T09:25:45.231Z,945.00
2023-06-17T09:26:45.334Z,950.62
2023-06-17T09:27:50.620Z,939.38
2023-06-17T09:28:46.221Z,939.38
2023-06-17T09:29:45.702Z,933.75
2023-06-17T09:30:45.613Z,933.75
2023-06-17T09:31:45.206Z,928.12
2023-06-17T09:32:45.210Z,928.12
2023-06-17T09:33:45.155Z,922.50
2023-06-17T09:34:45.166Z,922.50
2023-06-17T09:35:45.149Z,922.50
2023-06-17T09:36:45.143Z,916.88
2023-06-17T09:37:57.997Z,911.25
2023-06-17T09:38:46.231Z,905.62
2023-06-17T09:39:45.141Z,905.62
2023-06-17T09:40:45.117Z,894.38
2023-06-17T09:41:45.146Z,894.38
2023-06-17T09:42:45.136Z,888.75
2023-06-17T09:43:45.140Z,883.12
2023-06-17T09:44:45.090Z,900.00
2023-06-17T09:45:45.131Z,883.12
2023-06-17T09:46:45.104Z,871.88
2023-06-17T09:47:45.145Z,871.88
2023-06-17T09:48:45.087Z,866.25
2023-06-17T09:49:45.047Z,860.62
2023-06-17T09:50:45.706Z,855.00
2023-06-17T09:51:45.041Z,849.38
2023-06-17T09:52:45.036Z,849.38
2023-06-17T09:53:45.627Z,849.38
2023-06-17T09:54:45.044Z,843.75
2023-06-17T09:55:45.020Z,843.75
2023-06-17T09:56:45.155Z,838.12
2023-06-17T09:57:45.054Z,832.50
2023-06-17T09:58:45.090Z,838.12
2023-06-17T09:59:45.047Z,826.88
2023-06-17T10:00:44.992Z,826.88
2023-06-17T10:01:44.978Z,815.62
2023-06-17T10:02:45.139Z,815.62
2023-06-17T10:03:45.100Z,810.00
2023-06-17T10:04:45.052Z,804.38
2023-06-17T10:05:44.997Z,793.12
2023-06-17T10:06:44.990Z,793.12
2023-06-17T10:07:44.999Z,793.12
2023-06-17T10:08:45.741Z,787.50
2023-06-17T10:09:44.941Z,787.50
2023-06-17T10:10:44.921Z,781.88
2023-06-17T10:11:44.963Z,781.88
2023-06-17T10:12:45.005Z,781.88
2023-06-17T10:13:44.921Z,776.25
2023-06-17T10:14:44.894Z,770.62
2023-06-17T10:15:44.873Z,765.00
2023-06-17T10:16:45.450Z,759.38
2023-06-17T10:17:45.970Z,759.38
2023-06-17T10:18:44.918Z,753.75
2023-06-17T10:19:44.874Z,753.75
2023-06-17T10:20:44.892Z,753.75
2023-06-17T10:21:44.847Z,748.12
2023-06-17T10:22:44.866Z,742.50
2023-06-17T10:23:44.866Z,742.50
2023-06-17T10:24:45.014Z,742.50
2023-06-17T10:25:44.900Z,736.88
2023-06-17T10:26:44.855Z,742.50
2023-06-17T10:27:44.822Z,736.88
2023-06-17T10:28:44.849Z,725.62
2023-06-17T10:29:44.839Z,736.88
2023-06-17T10:30:44.814Z,725.62
2023-06-17T10:31:44.806Z,720.00
2023-06-17T10:32:44.831Z,720.00
2023-06-17T10:33:44.820Z,720.00
2023-06-17T10:34:44.785Z,720.00
2023-06-17T10:35:45.781Z,708.75
2023-06-17T10:36:44.749Z,708.75
2023-06-17T10:37:44.749Z,703.12
2023-06-17T10:38:44.745Z,708.75
2023-06-17T10:39:44.739Z,708.75
2023-06-17T10:40:44.840Z,708.75
2023-06-17T10:41:44.721Z,708.75
2023-06-17T10:42:44.777Z,703.12
2023-06-17T10:43:45.557Z,703.12
2023-06-17T10:44:44.732Z,703.12
2023-06-17T10:45:44.817Z,697.50
2023-06-17T10:46:44.694Z,703.12
2023-06-17T10:47:44.759Z,703.12
2023-06-17T10:48:44.697Z,708.75
2023-06-17T10:49:44.638Z,714.38
2023-06-17T10:50:44.676Z,708.75
2023-06-17T10:51:57.404Z,708.75
2023-06-17T10:52:46.657Z,703.12
2023-06-17T10:53:44.794Z,720.00
2023-06-17T10:54:44.671Z,714.38
2023-06-17T10:55:45.350Z,714.38
2023-06-17T10:56:45.326Z,703.12
2023-06-17T10:57:44.629Z,697.50
2023-06-17T10:58:44.678Z,697.50
2023-06-17T10:59:44.606Z,697.50
2023-06-17T11:00:44.611Z,691.88
2023-06-17T11:01:44.580Z,691.88
2023-06-17T11:02:44.630Z,697.50
2023-06-17T11:03:44.645Z,703.12
2023-06-17T11:04:44.558Z,697.50
2023-06-17T11:05:44.569Z,708.75
2023-06-17T11:06:44.552Z,714.38
2023-06-17T11:07:44.581Z,714.38
2023-06-17T11:08:44.556Z,720.00
2023-06-17T11:09:44.558Z,725.62
2023-06-17T11:10:45.721Z,731.25
2023-06-17T11:11:45.320Z,742.50
2023-06-17T11:12:45.290Z,742.50
2023-06-17T11:13:44.594Z,742.50
2023-06-17T11:14:44.513Z,748.12
2023-06-17T11:15:44.574Z,748.12
2023-06-17T11:16:44.500Z,748.12
2023-06-17T11:17:44.611Z,753.75
2023-06-17T11:18:44.498Z,748.12
2023-06-17T11:19:44.496Z,748.12
2023-06-17T11:20:44.543Z,748.12
2023-06-17T11:21:44.451Z,652.50
2023-06-17T11:22:44.472Z,669.38
2023-06-17T11:23:44.535Z,742.50
2023-06-17T11:24:44.464Z,551.25
2023-06-17T11:25:46.054Z,551.25
2023-06-17T11:26:44.489Z,720.00
2023-06-17T11:27:44.394Z,736.88
2023-06-17T11:28:44.420Z,753.75
2023-06-17T11:29:44.410Z,770.62
2023-06-17T11:30:44.780Z,781.88
2023-06-17T11:31:44.383Z,579.38
2023-06-17T11:32:44.508Z,669.38
2023-06-17T11:33:44.389Z,776.25
2023-06-17T11:35:16.287Z,776.25
2023-06-17T11:36:16.827Z,545.62
2023-06-17T11:36:44.420Z,523.12
2023-06-17T11:37:44.389Z,517.50
2023-06-17T11:38:44.390Z,523.12
2023-06-17T11:39:44.363Z,551.25
2023-06-17T11:40:44.336Z,630.00
2023-06-17T11:41:45.313Z,534.38
2023-06-17T11:42:44.346Z,585.00
2023-06-17T11:43:44.434Z,601.88
2023-06-17T11:44:44.364Z,517.50
2023-06-17T11:45:44.341Z,590.62
2023-06-17T11:46:44.435Z,714.38
2023-06-17T11:47:44.336Z,793.12
2023-06-17T11:48:44.360Z,742.50
2023-06-17T11:49:44.303Z,703.12
2023-06-17T11:50:44.289Z,765.00
2023-06-17T11:51:44.264Z,781.88
2023-06-17T11:52:44.314Z,753.75
2023-06-17T11:53:44.267Z,635.62
2023-06-17T11:54:44.229Z,708.75
2023-06-17T11:55:44.238Z,517.50
2023-06-17T11:56:44.253Z,506.25
2023-06-17T11:57:44.283Z,720.00
2023-06-17T11:58:44.304Z,765.00
2023-06-17T11:59:44.236Z,776.25
2023-06-17T12:00:45.138Z,787.50
2023-06-17T12:01:44.277Z,793.12
2023-06-17T12:02:44.415Z,787.50
2023-06-17T12:03:44.238Z,781.88
2023-06-17T12:04:44.206Z,551.25
2023-06-17T12:05:44.214Z,500.62
2023-06-17T12:06:44.248Z,489.38
2023-06-17T12:07:44.166Z,489.38
2023-06-17T12:08:44.154Z,472.50
2023-06-17T12:09:44.177Z,466.88
2023-06-17T12:10:44.195Z,736.88
2023-06-17T12:11:44.162Z,500.62
2023-06-17T12:12:44.140Z,748.12
2023-06-17T12:13:44.086Z,753.75
2023-06-17T12:14:44.116Z,506.25
2023-06-17T12:15:44.102Z,500.62
2023-06-17T12:16:45.900Z,540.00
2023-06-17T12:17:44.210Z,483.75
2023-06-17T12:18:44.088Z,478.12
2023-06-17T12:19:44.079Z,461.25
2023-06-17T12:20:44.130Z,444.38
2023-06-17T12:21:44.816Z,438.75
2023-06-17T12:22:44.093Z,427.50
2023-06-17T12:23:44.649Z,421.88
2023-06-17T12:24:45.153Z,421.88
2023-06-17T12:25:44.095Z,472.50
2023-06-17T12:26:44.049Z,562.50
2023-06-17T12:27:44.175Z,455.62
2023-06-17T12:29:25.634Z,714.38
2023-06-17T12:29:44.984Z,450.00
2023-06-17T12:30:43.950Z,714.38
2023-06-17T12:31:44.028Z,720.00
2023-06-17T12:32:44.317Z,714.38
2023-06-17T12:33:44.038Z,590.62
2023-06-17T12:34:43.994Z,725.62
2023-06-17T12:35:43.983Z,697.50
2023-06-17T12:36:43.981Z,736.88
2023-06-17T12:37:43.953Z,725.62
2023-06-17T12:38:43.983Z,466.88
2023-06-17T12:39:44.889Z,466.88
2023-06-17T12:40:43.893Z,511.88
2023-06-17T12:41:43.937Z,421.88
2023-06-17T12:42:43.925Z,433.12
2023-06-17T12:43:43.907Z,438.75
2023-06-17T12:44:43.872Z,703.12
2023-06-17T12:45:43.906Z,703.12
2023-06-17T12:46:43.914Z,703.12
2023-06-17T12:47:43.921Z,714.38